Time;durP1;ratioP1;P1;durP2;ratioP2;P2;SDS_P1;SDS_P2;PMS_P1;PMS_P2;Temp;Humidity;BMP_temperature;BMP_pressure;BME280_temperature;BME280_humidity;BME280_pressure;Samples;Min_cycle;Max_cycle;Signal;HPM_P1;HPM_P2
2022/12/19 00:01:18;;;;;;;29.38;11.45;;;28.60;85.70;;;;;;5106568;28;20335;-56
2022/12/19 00:03:47;;;;;;;28.17;11.02;;;28.60;85.70;;;;;;5106859;28;20027;-56
2022/12/19 00:06:15;;;;;;;28.90;10.63;;;28.60;85.60;;;;;;5106397;28;20098;-54
2022/12/19 00:08:46;;;;;;;32.58;11.60;;;28.50;85.40;;;;;;5106621;28;20031;-56
2022/12/19 00:11:14;;;;;;;31.00;11.38;;;28.50;85.40;;;;;;5106578;28;20048;-57
2022/12/19 00:13:43;;;;;;;28.00;10.50;;;28.50;85.40;;;;;;5106183;28;20261;-60
2022/12/19 00:16:19;;;;;;;22.40;10.00;;;28.50;85.50;;;;;;5106759;28;20040;-56
2022/12/19 00:18:47;;;;;;;31.00;9.27;;;28.50;85.50;;;;;;5107073;28;20042;-55
2022/12/19 00:21:16;;;;;;;25.50;9.82;;;28.50;85.50;;;;;;5106707;28;20059;-55
2022/12/19 00:23:44;;;;;;;26.20;8.95;;;28.40;85.40;;;;;;5087924;28;20031;-56
2022/12/19 00:26:16;;;;;;;31.02;9.02;;;28.50;85.50;;;;;;5105590;28;20020;-57
2022/12/19 00:28:44;;;;;;;;;;;28.40;85.50;;;;;;5106585;28;20335;-55
2022/12/19 00:31:14;;;;;;;22.52;9.25;;;28.40;85.70;;;;;;5105559;28;19908;-55
2022/12/19 00:33:41;;;;;;;33.67;10.15;;;28.40;85.80;;;;;;5105965;28;20024;-56
2022/12/19 00:36:12;;;;;;;32.28;10.10;;;28.40;85.80;;;;;;5087402;28;20028;-58
2022/12/19 00:38:42;;;;;;;34.60;9.70;;;28.30;85.80;;;;;;5105641;28;20103;-54
2022/12/19 00:41:11;;;;;;;38.97;10.07;;;28.40;86.00;;;;;;5105626;28;20024;-54
2022/12/19 00:43:38;;;;;;;27.95;9.07;;;28.30;86.00;;;;;;5106193;28;20072;-55
2022/12/19 00:46:07;;;;;;;34.72;9.63;;;28.40;86.10;;;;;;5091214;28;20093;-50
2022/12/19 00:48:37;;;;;;;38.83;10.20;;;28.20;87.00;;;;;;5099707;28;20048;-54
2022/12/19 00:51:16;;;;;;;33.47;10.98;;;28.10;87.60;;;;;;5115169;28;20023;-53
2022/12/19 00:53:45;;;;;;;32.70;9.90;;;27.90;88.20;;;;;;5111074;28;20039;-52
2022/12/19 00:56:22;;;;;;;35.92;9.88;;;27.70;88.70;;;;;;5122573;27;20023;-54
2022/12/19 00:58:49;;;;;;;32.88;9.98;;;27.50;89.20;;;;;;5117291;28;20036;-52
2022/12/19 01:01:29;;;;;;;27.33;10.30;;;27.40;89.80;;;;;;5111918;28;20215;-53
2022/12/19 01:03:58;;;;;;;26.60;9.68;;;27.30;90.00;;;;;;5124136;28;20358;-52
2022/12/19 01:06:25;;;;;;;35.22;9.43;;;27.30;90.20;;;;;;5126500;27;20038;-50
2022/12/19 01:08:52;;;;;;;22.58;8.20;;;27.20;90.10;;;;;;5141286;27;20054;-49
2022/12/19 01:12:44;;;;;;;26.02;8.13;;;27.20;90.20;;;;;;5133497;27;20020;-50
2022/12/19 01:14:11;;;;;;;28.77;7.63;;;27.20;90.20;;;;;;5132881;27;20235;-57
2022/12/19 01:16:38;;;;;;;18.58;7.38;;;27.10;90.10;;;;;;5120928;27;20027;-49
2022/12/19 01:19:04;;;;;;;17.55;7.95;;;27.10;90.10;;;;;;5138385;27;20045;-51
2022/12/19 01:21:31;;;;;;;20.98;8.43;;;27.00;90.00;;;;;;5125244;27;20026;-52
2022/12/19 01:23:57;;;;;;;22.48;8.95;;;26.90;90.20;;;;;;5125927;28;20024;-53
2022/12/19 01:26:24;;;;;;;21.55;9.30;;;26.90;90.30;;;;;;5106003;28;20027;-54
2022/12/19 01:28:50;;;;;;;17.52;8.80;;;27.10;90.20;;;;;;5125242;28;20078;-54
2022/12/19 01:31:17;;;;;;;16.52;7.95;;;27.20;90.00;;;;;;5124405;28;20031;-53
2022/12/19 01:33:43;;;;;;;33.22;8.65;;;27.30;89.50;;;;;;5126807;27;20080;-53
2022/12/19 01:36:10;;;;;;;22.25;8.50;;;27.40;88.90;;;;;;5145377;27;20031;-52
2022/12/19 01:38:37;;;;;;;16.73;8.55;;;27.50;88.40;;;;;;5145365;27;20023;-52
2022/12/19 01:41:04;;;;;;;18.88;8.55;;;27.60;88.00;;;;;;5126024;27;20031;-51
2022/12/19 01:43:53;;;;;;;16.50;8.50;;;27.60;87.60;;;;;;5124989;28;20031;-54
2022/12/19 01:46:29;;;;;;;23.98;8.73;;;27.70;87.50;;;;;;5117630;28;20036;-52
2022/12/19 01:48:56;;;;;;;20.50;8.43;;;27.70;87.20;;;;;;5104363;28;20047;-52
2022/12/19 01:51:28;;;;;;;17.00;7.60;;;27.80;87.00;;;;;;5116326;28;20050;-48
2022/12/19 01:54:03;;;;;;;15.50;9.05;;;27.80;86.90;;;;;;5114611;28;20047;-53
2022/12/19 01:56:34;;;;;;;20.83;10.30;;;27.80;86.60;;;;;;5112596;28;20032;-48
2022/12/19 01:59:07;;;;;;;18.23;10.00;;;27.80;86.30;;;;;;5122481;28;20036;-53
2022/12/19 02:01:34;;;;;;;;;;;27.80;86.20;;;;;;5123048;28;20215;-53
2022/12/19 02:04:01;;;;;;;15.98;8.82;;;27.80;86.00;;;;;;5109084;28;20208;-54
2022/12/19 02:06:30;;;;;;;20.60;9.13;;;27.80;85.90;;;;;;5144068;28;20019;-49
2022/12/19 02:08:56;;;;;;;18.30;8.93;;;27.80;85.80;;;;;;5145269;28;20230;-53
2022/12/19 02:11:41;;;;;;;19.45;8.32;;;27.80;85.70;;;;;;5126579;28;20039;-52
2022/12/19 02:14:09;;;;;;;19.58;7.97;;;27.80;85.50;;;;;;5133758;28;20090;-54
2022/12/19 02:17:05;;;;;;;15.90;7.57;;;27.80;85.40;;;;;;5095654;28;20028;-49
2022/12/19 02:20:07;;;;;;;16.67;7.57;;;27.80;85.40;;;;;;5085001;28;20264;-54
2022/12/19 02:23:25;;;;;;;15.57;7.40;;;27.80;85.10;;;;;;5106346;28;20032;-55
2022/12/19 02:26:11;;;;;;;19.25;7.53;;;27.80;85.00;;;;;;5095531;28;20025;-54
2022/12/19 02:29:03;;;;;;;16.65;7.10;;;27.80;84.90;;;;;;5091024;28;20073;-55
2022/12/19 02:31:54;;;;;;;17.42;7.50;;;27.80;84.80;;;;;;5104520;28;20162;-54
2022/12/19 02:34:29;;;;;;;15.15;7.25;;;27.80;84.80;;;;;;5100872;28;20077;-53
2022/12/19 02:37:10;;;;;;;15.13;6.75;;;27.80;84.80;;;;;;5101912;28;20032;-52
2022/12/19 02:40:04;;;;;;;14.40;7.43;;;27.80;84.60;;;;;;5085031;28;20063;-54
2022/12/19 02:42:36;;;;;;;12.60;6.60;;;27.80;84.50;;;;;;5111872;28;20323;-50
2022/12/19 02:45:06;;;;;;;16.02;6.68;;;27.80;84.50;;;;;;5119748;28;20212;-51
2022/12/19 02:47:33;;;;;;;11.77;6.68;;;27.80;84.40;;;;;;5123688;28;20290;-54
2022/12/19 02:50:00;;;;;;;15.65;6.93;;;27.80;84.30;;;;;;5122135;28;20023;-55
2022/12/19 02:52:26;;;;;;;13.95;6.80;;;27.80;84.20;;;;;;5122218;28;20220;-55
2022/12/19 02:54:57;;;;;;;14.30;6.45;;;27.80;84.10;;;;;;5122306;28;20075;-56
2022/12/19 02:57:30;;;;;;;12.25;6.13;;;27.80;84.10;;;;;;5104308;28;20059;-56
2022/12/19 03:00:32;;;;;;;13.60;7.20;;;27.80;84.00;;;;;;5121642;28;20087;-54
2022/12/19 03:03:39;;;;;;;18.13;7.65;;;27.80;83.90;;;;;;5117371;28;20047;-57
2022/12/19 03:06:17;;;;;;;21.77;7.68;;;27.80;83.90;;;;;;5119389;28;20161;-51
2022/12/19 03:09:09;;;;;;;18.42;6.68;;;27.70;83.70;;;;;;5126668;28;20157;-55
2022/12/19 03:11:41;;;;;;;20.30;6.35;;;27.70;83.50;;;;;;5122564;28;20347;-52
2022/12/19 03:14:20;;;;;;;17.00;6.82;;;27.70;83.40;;;;;;5125799;28;20102;-55
2022/12/19 03:16:47;;;;;;;16.90;6.32;;;27.70;83.20;;;;;;5107998;28;20335;-49
2022/12/19 03:19:15;;;;;;;12.77;5.68;;;27.70;82.90;;;;;;5108470;28;20324;-51
2022/12/19 03:21:47;;;;;;;12.30;5.35;;;27.70;82.80;;;;;;5127681;28;20027;-51
2022/12/19 03:24:14;;;;;;;;;;;27.70;82.60;;;;;;5127864;28;20237;-49
2022/12/19 03:26:47;;;;;;;16.27;6.47;;;27.70;82.40;;;;;;5126641;28;19904;-54
2022/12/19 03:29:33;;;;;;;13.23;5.15;;;27.70;82.10;;;;;;5127228;28;20220;-51
2022/12/19 03:32:04;;;;;;;10.48;5.43;;;27.70;81.80;;;;;;5127729;28;20031;-56
2022/12/19 03:34:45;;;;;;;9.95;5.43;;;27.70;82.30;;;;;;5125538;28;20028;-50
2022/12/19 03:37:16;;;;;;;13.73;5.70;;;27.70;81.50;;;;;;5125305;28;20106;-49
2022/12/19 03:39:47;;;;;;;14.93;5.20;;;27.60;81.30;;;;;;5125043;28;20035;-48
2022/12/19 03:45:02;;;;;;;11.85;5.22;;;27.60;80.90;;;;;;5125173;28;20335;-53
2022/12/19 03:47:32;;;;;;;14.20;5.65;;;27.60;80.90;;;;;;5125195;28;20058;-56
2022/12/19 03:49:59;;;;;;;10.35;5.22;;;27.60;80.90;;;;;;5125388;28;20095;-49
2022/12/19 03:52:49;;;;;;;10.30;5.63;;;27.60;80.90;;;;;;5125495;28;20083;-53
2022/12/19 03:55:45;;;;;;;9.90;5.47;;;27.60;80.70;;;;;;5126292;28;20023;-52
2022/12/19 03:58:40;;;;;;;10.98;5.70;;;27.60;80.60;;;;;;5108405;28;20099;-52
2022/12/19 04:01:08;;;;;;;9.57;4.93;;;27.50;80.50;;;;;;5121972;28;20031;-48
2022/12/19 04:03:35;;;;;;;11.90;4.90;;;27.60;80.50;;;;;;5125823;28;20036;-56
2022/12/19 04:06:04;;;;;;;11.45;5.30;;;27.50;80.30;;;;;;5108314;28;20090;-54
2022/12/19 04:08:32;;;;;;;13.52;5.35;;;27.50;80.10;;;;;;5126255;28;20266;-53
2022/12/19 04:11:04;;;;;;;11.18;4.93;;;27.50;79.90;;;;;;5126528;27;20022;-49
2022/12/19 04:13:35;;;;;;;;;;;27.50;79.80;;;;;;5138009;27;20216;-49
2022/12/19 04:16:14;;;;;;;12.50;4.18;;;27.50;79.70;;;;;;5126474;28;19910;-56
2022/12/19 04:18:49;;;;;;;9.38;4.80;;;27.50;79.50;;;;;;5125985;28;20084;-51
2022/12/19 04:21:40;;;;;;;8.95;4.40;;;27.50;79.20;;;;;;5126474;28;20027;-56
2022/12/19 04:24:26;;;;;;;11.07;4.90;;;27.50;79.00;;;;;;5125803;28;20047;-52
2022/12/19 04:26:55;;;;;;;9.55;4.22;;;27.40;78.80;;;;;;5126494;28;20024;-54
2022/12/19 04:29:26;;;;;;;11.05;4.57;;;27.40;78.70;;;;;;5125871;28;20043;-54
2022/12/19 04:31:53;;;;;;;11.77;4.45;;;27.40;78.50;;;;;;5107779;28;20095;-54
2022/12/19 04:34:21;;;;;;;7.78;3.78;;;27.40;78.30;;;;;;5125695;28;20371;-59
2022/12/19 04:36:49;;;;;;;11.13;4.05;;;27.40;78.30;;;;;;5126335;28;20024;-56
2022/12/19 04:39:16;;;;;;;9.63;3.90;;;27.40;78.10;;;;;;5125770;28;20032;-53
2022/12/19 04:41:42;;;;;;;8.30;3.45;;;27.40;77.70;;;;;;5126013;28;20027;-49
2022/12/19 04:44:09;;;;;;;8.57;3.78;;;27.30;77.60;;;;;;5107804;28;20023;-59
2022/12/19 04:46:35;;;;;;;10.85;3.80;;;27.40;77.50;;;;;;5126137;28;20019;-51
2022/12/19 04:49:02;;;;;;;8.93;4.15;;;27.40;77.30;;;;;;5125385;28;20336;-53
2022/12/19 04:51:29;;;;;;;13.80;4.47;;;27.30;77.10;;;;;;5126068;28;20027;-52
2022/12/19 04:53:56;;;;;;;11.63;3.90;;;27.30;76.90;;;;;;5125586;28;20019;-54
2022/12/19 04:56:22;;;;;;;8.13;3.70;;;27.30;76.90;;;;;;5125598;28;20039;-57
2022/12/19 04:58:49;;;;;;;9.15;3.97;;;27.30;76.80;;;;;;5125415;28;20031;-56
2022/12/19 05:01:17;;;;;;;9.35;3.53;;;27.30;76.70;;;;;;5125801;28;20184;-55
2022/12/19 05:03:43;;;;;;;12.52;4.03;;;27.30;76.60;;;;;;5125265;28;20042;-56
2022/12/19 05:06:12;;;;;;;8.43;3.53;;;27.30;76.30;;;;;;5125693;28;20026;-54
2022/12/19 05:08:41;;;;;;;7.68;3.85;;;27.30;76.20;;;;;;5125430;28;20099;-56
2022/12/19 05:11:09;;;;;;;10.40;3.50;;;27.30;76.00;;;;;;5125442;28;20237;-52
2022/12/19 05:13:36;;;;;;;5.47;3.40;;;27.30;76.00;;;;;;5125146;28;20023;-54
2022/12/19 05:16:06;;;;;;;6.95;3.40;;;27.30;75.80;;;;;;5125597;28;20082;-52
2022/12/19 05:18:33;;;;;;;6.15;3.30;;;27.30;75.60;;;;;;5125083;28;20252;-56
2022/12/19 05:21:00;;;;;;;8.18;3.28;;;27.30;75.60;;;;;;5125490;28;20027;-57
2022/12/19 05:23:26;;;;;;;7.68;3.35;;;27.30;75.60;;;;;;5124982;28;20020;-58
2022/12/19 05:25:56;;;;;;;7.60;3.67;;;27.30;75.50;;;;;;5125063;28;20028;-51
2022/12/19 05:28:23;;;;;;;8.70;3.60;;;27.20;75.40;;;;;;5124912;28;20043;-54
2022/12/19 05:30:49;;;;;;;5.63;3.30;;;27.20;75.30;;;;;;5125378;28;20024;-52
2022/12/19 05:33:16;;;;;;;7.28;3.65;;;27.20;75.20;;;;;;5124668;28;20030;-53
2022/12/19 05:35:42;;;;;;;9.25;3.58;;;27.20;75.30;;;;;;5124720;28;20075;-50
2022/12/19 05:38:09;;;;;;;8.02;3.40;;;27.20;75.30;;;;;;5124844;28;20031;-53
2022/12/19 05:40:35;;;;;;;5.63;3.50;;;27.20;75.40;;;;;;5125097;28;20207;-54
2022/12/19 05:43:02;;;;;;;5.65;3.55;;;27.10;75.40;;;;;;5125075;28;20051;-51
2022/12/19 05:45:28;;;;;;;8.55;3.90;;;27.10;75.40;;;;;;5124900;28;20024;-48
2022/12/19 05:47:55;;;;;;;8.48;3.72;;;27.10;75.50;;;;;;5124448;28;20232;-49
2022/12/19 05:50:21;;;;;;;7.32;3.42;;;27.10;75.60;;;;;;5125007;28;20019;-53
2022/12/19 05:52:48;;;;;;;6.85;3.50;;;27.10;75.60;;;;;;5124716;28;20039;-51
2022/12/19 05:55:15;;;;;;;10.25;4.18;;;27.10;75.90;;;;;;5124603;28;20300;-51
2022/12/19 05:57:41;;;;;;;9.82;4.78;;;27.10;76.10;;;;;;5124527;28;20197;-52
2022/12/19 06:00:09;;;;;;;11.57;4.00;;;27.10;76.50;;;;;;5124587;28;20043;-55
2022/12/19 06:02:35;;;;;;;9.15;4.63;;;27.00;76.90;;;;;;5124469;28;20035;-54
2022/12/19 06:05:02;;;;;;;8.60;4.22;;;27.00;77.20;;;;;;5124441;28;20023;-55
2022/12/19 06:07:29;;;;;;;9.23;4.03;;;27.00;77.50;;;;;;5124905;28;20027;-62
2022/12/19 06:09:55;;;;;;;9.23;4.13;;;27.00;77.70;;;;;;5125175;28;20044;-53
2022/12/19 06:12:22;;;;;;;9.25;4.30;;;27.00;78.00;;;;;;5124735;28;20082;-54
2022/12/19 06:14:52;;;;;;;7.60;4.10;;;27.00;78.10;;;;;;5125682;28;20279;-53
2022/12/19 06:17:18;;;;;;;10.82;4.22;;;26.90;78.10;;;;;;5125856;28;20035;-53
2022/12/19 06:19:45;;;;;;;8.43;4.45;;;26.90;77.90;;;;;;5106517;28;20031;-52
2022/12/19 06:22:13;;;;;;;7.75;4.05;;;26.90;77.90;;;;;;5124474;28;20076;-54
2022/12/19 06:24:39;;;;;;;11.02;4.40;;;26.90;77.90;;;;;;5124162;28;20020;-50
2022/12/19 06:27:06;;;;;;;7.63;3.80;;;26.90;77.80;;;;;;5124398;28;20103;-54
2022/12/19 06:29:33;;;;;;;8.35;4.35;;;26.90;77.60;;;;;;5124436;28;20260;-48
2022/12/19 06:31:59;;;;;;;6.60;3.65;;;26.90;77.60;;;;;;5124847;28;20219;-50
2022/12/19 06:34:26;;;;;;;8.63;3.88;;;26.90;77.30;;;;;;5124136;28;20076;-52
2022/12/19 06:36:53;;;;;;;8.35;3.80;;;26.90;77.00;;;;;;5124655;28;20011;-51
2022/12/19 06:39:21;;;;;;;5.78;3.90;;;26.90;76.90;;;;;;5124454;28;20204;-52
2022/12/19 06:44:32;;;;;;;8.32;3.90;;;26.90;76.80;;;;;;5124430;28;20038;-52
2022/12/19 06:46:59;;;;;;;10.70;3.85;;;26.80;76.70;;;;;;5125097;28;20027;-49
2022/12/19 06:49:25;;;;;;;7.13;4.00;;;26.80;77.10;;;;;;5127897;28;20035;-53
2022/12/19 06:51:52;;;;;;;8.05;3.88;;;26.80;76.40;;;;;;5128753;28;20233;-56
2022/12/19 06:54:18;;;;;;;7.50;3.38;;;26.80;76.20;;;;;;5128262;28;20035;-49
2022/12/19 06:56:45;;;;;;;9.90;4.22;;;26.80;76.00;;;;;;5128806;28;20031;-55
2022/12/19 06:59:13;;;;;;;8.05;4.00;;;26.80;76.20;;;;;;5128408;28;20028;-52
2022/12/19 07:01:55;;;;;;;6.70;3.75;;;26.80;76.50;;;;;;5128357;28;20023;-55
2022/12/19 07:04:36;;;;;;;7.10;3.58;;;26.80;76.60;;;;;;5127938;28;20039;-54
2022/12/19 07:07:03;;;;;;;6.88;3.75;;;26.80;76.50;;;;;;5127483;28;20039;-53
2022/12/19 07:09:30;;;;;;;10.32;3.80;;;26.70;76.40;;;;;;5127955;28;20323;-53
2022/12/19 07:11:57;;;;;;;5.35;3.40;;;26.70;76.50;;;;;;5128398;28;20016;-53
2022/12/19 07:14:24;;;;;;;6.90;3.75;;;26.60;76.50;;;;;;5127641;28;20028;-54
2022/12/19 07:16:52;;;;;;;6.70;3.60;;;26.70;76.50;;;;;;5128342;28;20050;-51
2022/12/19 07:19:20;;;;;;;9.23;3.80;;;26.70;76.30;;;;;;5127993;28;20028;-55
2022/12/19 07:21:48;;;;;;;6.03;3.60;;;26.60;76.00;;;;;;5127701;28;20023;-53
2022/12/19 07:24:15;;;;;;;5.63;3.22;;;26.60;75.90;;;;;;5127400;28;20019;-49
2022/12/19 07:26:43;;;;;;;6.70;3.15;;;26.60;75.70;;;;;;5127580;28;20033;-55
2022/12/19 07:29:11;;;;;;;6.78;3.05;;;26.60;75.70;;;;;;5127361;28;20043;-50
2022/12/19 07:31:37;;;;;;;8.52;3.40;;;26.60;75.40;;;;;;5127942;28;20080;-48
2022/12/19 07:34:04;;;;;;;6.95;3.00;;;26.60;75.00;;;;;;5127304;28;20023;-54
2022/12/19 07:36:31;;;;;;;5.55;2.88;;;26.60;74.80;;;;;;5127392;28;20012;-48
2022/12/19 07:38:57;;;;;;;8.27;3.25;;;26.60;74.70;;;;;;5127568;28;20074;-49
2022/12/19 07:41:24;;;;;;;7.75;3.50;;;26.60;74.60;;;;;;5127797;28;20032;-50
2022/12/19 07:43:50;;;;;;;6.85;3.22;;;26.60;74.20;;;;;;5127031;28;20099;-52
2022/12/19 07:46:17;;;;;;;5.18;2.88;;;26.60;73.90;;;;;;5127177;28;20307;-49
2022/12/19 07:48:43;;;;;;;7.50;3.20;;;26.60;73.40;;;;;;5127021;28;20051;-50
2022/12/19 07:51:10;;;;;;;7.00;3.13;;;26.60;72.90;;;;;;5127180;28;20023;-48
2022/12/19 07:53:36;;;;;;;9.60;3.10;;;26.60;72.50;;;;;;5126923;28;20027;-49
2022/12/19 07:56:03;;;;;;;5.15;2.50;;;26.60;72.20;;;;;;5127431;28;20207;-49
2022/12/19 07:58:30;;;;;;;4.45;2.60;;;26.60;71.90;;;;;;5126788;28;20035;-51
2022/12/19 08:00:59;;;;;;;6.47;2.45;;;26.50;71.80;;;;;;5126928;28;20343;-50
2022/12/19 08:03:27;;;;;;;5.93;2.53;;;26.50;71.20;;;;;;5126428;28;20084;-51
2022/12/19 08:06:03;;;;;;;5.38;2.40;;;26.50;71.20;;;;;;5126538;28;20035;-49
2022/12/19 08:08:30;;;;;;;4.13;2.70;;;26.50;70.80;;;;;;5126440;28;20035;-50
2022/12/19 08:11:07;;;;;;;4.88;2.25;;;26.50;70.60;;;;;;5127065;28;20028;-54
2022/12/19 08:13:34;;;;;;;6.63;2.67;;;26.50;70.60;;;;;;5127266;28;20039;-50
2022/12/19 08:16:01;;;;;;;5.13;2.63;;;26.50;70.60;;;;;;5127070;28;20027;-54
2022/12/19 08:18:28;;;;;;;7.38;2.90;;;26.50;70.80;;;;;;5126692;28;20208;-53
2022/12/19 08:20:54;;;;;;;7.18;2.95;;;26.50;71.00;;;;;;5126958;28;20032;-53
2022/12/19 08:23:21;;;;;;;6.00;3.00;;;26.50;71.20;;;;;;5126244;28;20034;-52
2022/12/19 08:25:48;;;;;;;4.20;2.63;;;26.50;71.20;;;;;;5126335;28;20031;-49
2022/12/19 08:28:15;;;;;;;7.78;2.72;;;26.50;71.00;;;;;;5125860;28;20307;-51
2022/12/19 08:30:44;;;;;;;6.38;2.40;;;26.50;71.00;;;;;;5126312;28;20083;-51
2022/12/19 08:33:10;;;;;;;7.80;2.88;;;26.50;70.70;;;;;;5126010;28;20261;-48
2022/12/19 08:35:37;;;;;;;7.57;2.78;;;26.50;70.60;;;;;;5126067;28;20061;-51
2022/12/19 08:38:03;;;;;;;6.85;2.35;;;26.50;70.40;;;;;;5126258;28;20019;-50
2022/12/19 08:40:30;;;;;;;5.65;2.50;;;26.50;70.30;;;;;;5126082;28;20024;-52
2022/12/19 08:42:56;;;;;;;5.35;2.60;;;26.50;70.20;;;;;;5126087;28;20023;-50
2022/12/19 08:45:23;;;;;;;5.43;2.35;;;26.50;69.90;;;;;;5126277;28;20065;-49
2022/12/19 08:47:50;;;;;;;6.45;2.72;;;26.50;69.70;;;;;;5125942;28;20051;-49
2022/12/19 08:50:16;;;;;;;6.30;2.47;;;26.50;69.70;;;;;;5126016;28;20048;-53
2022/12/19 08:52:43;;;;;;;6.35;2.70;;;26.50;69.50;;;;;;5125903;28;20087;-51
2022/12/19 08:55:10;;;;;;;4.75;2.45;;;26.60;69.30;;;;;;5125724;28;20031;-51
2022/12/19 08:57:36;;;;;;;6.45;2.50;;;26.50;69.20;;;;;;5125765;28;20028;-52
2022/12/19 09:00:05;;;;;;;5.80;2.70;;;26.50;69.10;;;;;;5126172;28;20034;-50
2022/12/19 09:02:31;;;;;;;6.68;2.50;;;26.50;69.10;;;;;;5125512;28;20023;-50
2022/12/19 09:04:58;;;;;;;7.57;2.70;;;26.50;69.10;;;;;;5125729;28;20233;-48
2022/12/19 09:07:24;;;;;;;9.38;2.47;;;26.50;68.90;;;;;;5125880;28;20091;-49
2022/12/19 09:09:51;;;;;;;8.57;2.42;;;26.50;68.80;;;;;;5124906;28;20027;-50
2022/12/19 09:12:18;;;;;;;4.05;2.40;;;26.50;68.60;;;;;;5125821;28;20027;-55
2022/12/19 09:14:44;;;;;;;6.30;2.75;;;26.40;68.50;;;;;;5125537;28;20020;-49
2022/12/19 09:17:11;;;;;;;4.05;2.60;;;26.40;68.50;;;;;;5125295;28;20020;-50
2022/12/19 09:19:37;;;;;;;5.05;2.38;;;26.40;68.50;;;;;;5125311;28;20015;-52
2022/12/19 09:22:04;;;;;;;5.55;2.97;;;26.40;68.60;;;;;;5125487;28;20035;-54
2022/12/19 09:24:31;;;;;;;7.10;3.00;;;26.40;68.90;;;;;;5125080;28;20027;-51
2022/12/19 09:26:57;;;;;;;5.38;2.42;;;26.40;68.90;;;;;;5125355;28;20051;-55
2022/12/19 09:29:24;;;;;;;4.05;2.47;;;26.40;68.70;;;;;;5124790;28;20042;-53
2022/12/19 09:31:51;;;;;;;5.35;2.58;;;26.40;68.50;;;;;;5125449;28;20016;-52
2022/12/19 09:34:17;;;;;;;7.38;2.47;;;26.40;68.50;;;;;;5125192;28;20316;-54
2022/12/19 09:36:44;;;;;;;5.57;2.70;;;26.40;68.40;;;;;;5126044;28;20026;-49
2022/12/19 09:39:11;;;;;;;6.75;2.80;;;26.40;68.60;;;;;;5125559;28;20193;-48
2022/12/19 09:42:14;;;;;;;5.07;2.45;;;26.30;68.50;;;;;;5125651;28;20413;-52
2022/12/19 09:45:05;;;;;;;8.25;3.00;;;26.30;68.80;;;;;;5124594;28;20038;-51
2022/12/19 09:47:33;;;;;;;11.93;3.25;;;26.40;69.50;;;;;;5124588;28;20031;-53
2022/12/19 09:50:01;;;;;;;10.98;3.60;;;26.30;70.10;;;;;;5124729;28;20253;-53
2022/12/19 09:52:42;;;;;;;12.60;3.28;;;26.30;70.80;;;;;;5124800;28;20316;-51
2022/12/19 09:55:31;;;;;;;11.45;3.80;;;26.30;71.20;;;;;;5124606;28;20031;-55
2022/12/19 09:58:19;;;;;;;14.23;4.10;;;26.30;71.70;;;;;;5124534;28;20035;-55
2022/12/19 10:00:55;;;;;;;10.57;3.60;;;26.30;72.20;;;;;;5124687;28;20038;-50
2022/12/19 10:03:41;;;;;;;9.40;3.88;;;26.30;73.00;;;;;;5124395;28;20031;-52
2022/12/19 10:06:18;;;;;;;18.48;4.18;;;26.20;73.20;;;;;;5124804;28;20257;-50
2022/12/19 10:08:45;;;;;;;11.88;3.70;;;26.30;73.40;;;;;;5124666;28;20036;-52
2022/12/19 10:11:14;;;;;;;10.90;3.67;;;26.20;73.20;;;;;;5124698;28;20030;-52
2022/12/19 10:13:53;;;;;;;9.07;3.05;;;26.20;73.10;;;;;;5124614;28;20035;-48
2022/12/19 10:16:45;;;;;;;13.57;3.80;;;26.20;73.10;;;;;;5124832;28;20308;-52
2022/12/19 10:19:50;;;;;;;7.63;3.22;;;26.20;73.30;;;;;;5077405;28;20047;-52
2022/12/19 10:22:47;;;;;;;10.70;3.70;;;26.20;73.60;;;;;;5121450;28;20345;-55
2022/12/19 10:25:49;;;;;;;8.75;3.80;;;26.20;73.50;;;;;;5121232;28;20028;-51
2022/12/19 10:28:24;;;;;;;12.93;4.03;;;26.10;73.40;;;;;;5128725;28;20036;-53
2022/12/19 10:31:19;;;;;;;10.00;3.72;;;26.10;73.20;;;;;;5128788;28;20027;-53
2022/12/19 10:33:53;;;;;;;14.93;4.00;;;26.10;73.50;;;;;;5115144;28;20031;-53
2022/12/19 10:36:22;;;;;;;10.48;4.22;;;26.10;73.60;;;;;;5110436;28;20019;-49
2022/12/19 10:38:55;;;;;;;9.95;4.07;;;26.00;73.50;;;;;;5128767;28;20050;-53
2022/12/19 10:41:28;;;;;;;10.00;3.75;;;26.00;73.70;;;;;;5128892;28;20030;-53
2022/12/19 10:44:07;;;;;;;12.40;4.15;;;26.00;73.40;;;;;;5128145;28;20039;-52
2022/12/19 10:46:45;;;;;;;11.43;3.47;;;26.00;73.10;;;;;;5128377;28;20032;-50
2022/12/19 10:49:27;;;;;;;6.55;3.05;;;26.00;73.20;;;;;;5128017;28;20044;-49
2022/12/19 10:51:57;;;;;;;7.43;3.53;;;26.00;72.50;;;;;;5129042;28;20038;-50
2022/12/19 10:54:36;;;;;;;12.88;3.65;;;25.90;72.30;;;;;;5128078;28;20039;-51
2022/12/19 10:57:18;;;;;;;10.60;4.00;;;26.00;72.50;;;;;;5128240;28;20031;-51
2022/12/19 10:59:58;;;;;;;15.68;3.78;;;25.90;72.40;;;;;;5128208;28;20107;-54
2022/12/19 11:02:44;;;;;;;14.50;4.22;;;25.90;72.30;;;;;;5127722;28;20031;-53
2022/12/19 11:05:24;;;;;;;11.82;3.92;;;25.90;72.30;;;;;;5128380;28;20110;-50
2022/12/19 11:08:08;;;;;;;13.45;3.88;;;25.90;72.40;;;;;;5127955;28;20035;-50
2022/12/19 11:10:37;;;;;;;9.85;3.88;;;25.90;72.30;;;;;;5127798;28;20093;-51
2022/12/19 11:13:29;;;;;;;17.40;4.03;;;25.90;72.40;;;;;;5127374;28;20028;-52
2022/12/19 11:15:57;;;;;;;24.35;4.20;;;25.90;72.60;;;;;;5127355;28;20028;-50
2022/12/19 11:18:33;;;;;;;15.18;3.97;;;25.90;72.90;;;;;;5109100;28;20292;-52
2022/12/19 11:21:16;;;;;;;14.60;3.20;;;25.60;73.60;;;;;;5127668;28;20316;-53
2022/12/19 11:23:55;;;;;;;12.63;3.47;;;25.60;73.60;;;;;;5127509;28;20039;-55
2022/12/19 11:26:35;;;;;;;17.98;4.38;;;25.70;74.20;;;;;;5126148;28;20032;-58
2022/12/19 11:29:18;;;;;;;15.45;4.35;;;25.70;73.90;;;;;;5126715;28;20027;-56
2022/12/19 11:31:46;;;;;;;12.52;4.40;;;25.70;74.20;;;;;;5128061;28;20023;-57
2022/12/19 11:34:24;;;;;;;16.90;4.50;;;25.70;74.80;;;;;;5126064;28;20028;-53
2022/12/19 11:37:06;;;;;;;12.68;5.28;;;25.80;75.70;;;;;;5125509;28;20355;-53
2022/12/19 11:40:00;;;;;;;12.35;4.40;;;25.90;76.30;;;;;;5125206;28;20028;-56
2022/12/19 11:42:49;;;;;;;14.68;4.10;;;25.90;76.80;;;;;;5120959;28;20285;-55
2022/12/19 11:45:50;;;;;;;12.82;4.38;;;25.90;77.00;;;;;;5116361;28;20027;-54
2022/12/19 11:48:40;;;;;;;11.10;4.50;;;25.90;77.20;;;;;;5107747;28;20126;-53
2022/12/19 11:51:45;;;;;;;9.75;3.80;;;25.90;77.20;;;;;;5113286;28;20024;-51
2022/12/19 11:54:25;;;;;;;12.23;3.78;;;25.90;77.40;;;;;;5066150;28;20048;-55
2022/12/19 11:56:52;;;;;;;10.73;3.65;;;26.00;77.50;;;;;;5074250;28;20028;-58
2022/12/19 11:59:28;;;;;;;11.90;3.30;;;26.00;77.50;;;;;;5106275;28;20220;-59
2022/12/19 12:02:26;;;;;;;13.38;4.05;;;26.00;77.50;;;;;;5106651;28;20407;-55
2022/12/19 12:05:30;;;;;;;8.98;3.85;;;26.00;77.60;;;;;;5117593;28;20246;-57
2022/12/19 12:08:27;;;;;;;8.25;3.53;;;26.10;77.80;;;;;;5113631;28;20320;-54
2022/12/19 12:11:01;;;;;;;9.55;3.80;;;26.10;78.10;;;;;;5116263;27;20303;-56
2022/12/19 12:14:13;;;;;;;10.15;3.95;;;26.10;78.30;;;;;;5124953;27;20245;-56
2022/12/19 12:17:27;;;;;;;10.47;3.80;;;26.10;78.60;;;;;;5096534;28;20032;-55
2022/12/19 12:20:02;;;;;;;;;;;26.10;78.90;;;;;;5044259;28;20044;-57
2022/12/19 12:23:05;;;;;;;13.23;3.90;;;26.10;79.20;;;;;;5035303;28;19909;-54
2022/12/19 12:25:45;;;;;;;7.93;3.88;;;26.20;79.50;;;;;;5098803;28;20210;-56
2022/12/19 12:29:06;;;;;;;14.57;4.47;;;26.20;79.70;;;;;;5114582;28;20043;-55
2022/12/19 12:31:45;;;;;;;12.95;4.38;;;26.20;80.00;;;;;;5026443;28;20021;-54
2022/12/19 12:34:42;;;;;;;10.10;4.70;;;26.30;80.20;;;;;;5113745;28;20103;-54
2022/12/19 12:37:31;;;;;;;8.90;4.15;;;26.30;80.50;;;;;;5116759;28;20024;-56
2022/12/19 12:40:20;;;;;;;14.57;4.38;;;26.30;80.70;;;;;;5102336;28;20089;-55
2022/12/19 12:42:57;;;;;;;10.82;4.35;;;26.30;81.00;;;;;;5109022;28;20027;-55
2022/12/19 12:45:35;;;;;;;12.50;4.90;;;26.40;81.10;;;;;;5125144;28;20397;-54
2022/12/19 12:48:01;;;;;;;13.35;4.75;;;26.40;81.30;;;;;;5123800;28;20256;-55
2022/12/19 12:50:29;;;;;;;14.82;4.82;;;26.40;81.60;;;;;;5120033;28;20019;-56
2022/12/19 12:53:00;;;;;;;12.73;4.95;;;26.40;81.80;;;;;;5108018;28;20044;-56
2022/12/19 12:55:39;;;;;;;14.85;5.20;;;26.40;81.90;;;;;;5110047;28;20091;-55
2022/12/19 12:58:25;;;;;;;12.82;4.85;;;26.40;82.10;;;;;;5112742;28;20042;-54
2022/12/19 13:01:16;;;;;;;12.63;4.80;;;26.40;82.30;;;;;;5104088;28;20030;-57
2022/12/19 13:03:53;;;;;;;16.23;5.53;;;26.40;82.50;;;;;;5104929;28;20024;-53
2022/12/19 13:06:49;;;;;;;12.95;4.68;;;26.40;82.70;;;;;;5117009;28;20083;-57
2022/12/19 13:09:27;;;;;;;9.98;4.60;;;26.40;82.70;;;;;;5113571;28;20028;-57
2022/12/19 13:14:49;;;;;;;13.15;5.35;;;26.50;83.00;;;;;;5115129;28;20080;-56
2022/12/19 13:17:44;;;;;;;13.85;5.10;;;26.40;83.20;;;;;;5124863;28;20216;-55
2022/12/19 13:20:33;;;;;;;12.48;5.25;;;26.40;83.60;;;;;;5131195;27;20066;-54
2022/12/19 13:23:00;;;;;;;10.45;5.38;;;26.40;83.70;;;;;;5145496;27;20043;-53
2022/12/19 13:25:47;;;;;;;14.32;4.97;;;26.50;83.80;;;;;;5130245;27;20019;-55